Teresopolis, Brazil
Current Conditions -  °F | °C
As of 10:00 PM on Wednesday 22 Oct 2014 (Local Time) from SBGL Reporting Station
Broken Clouds Broken Clouds  
Wind Chill: 70°   Ceiling: 2500
Heat Index: 70°   Visibility: 6mi
Dew Point: 59°   Wind: 6mph
Humidity: 68%   Direction: 100°E
Pressure: 30.21"   Gusts: NA
Location:  22.41°S, 42.98°W
Report Text: SBGL 230000Z 10005KT 9999 BKN025 BKN050 21/15 Q1023
Loading
Personal Weather Stations






























Interactive Weather Map
Tropical Storm Tracking
New forecast layout! Learn more

10-Day Weather Forecast

Advertisements
Track Severe Weather on mobile